Time;durP1;ratioP1;P1;durP2;ratioP2;P2;SDS_P1;SDS_P2;PMS_P1;PMS_P2;Temp;Humidity;BMP_temperature;BMP_pressure;BME280_temperature;BME280_humidity;BME280_pressure;Samples;Min_cycle;Max_cycle;Signal;HPM_P1;HPM_P2
2022/03/01 06:36:58;;;;;;;23.10;11.15;;;;;;;;;;5107066;27;20329;-63
2022/03/01 06:39:25;;;;;;;17.08;10.70;;;;;;;;;;5107114;28;20040;-63
2022/03/01 06:41:51;;;;;;;16.90;10.70;;;;;;;;;;5105856;28;20058;-63
2022/03/01 06:44:18;;;;;;;18.02;10.23;;;;;;;;;;5107041;28;20035;-62
2022/03/01 06:46:44;;;;;;;15.88;10.02;;;;;;;;;;5103905;28;20040;-63
2022/03/01 06:49:10;;;;;;;16.75;10.13;;;;;;;;;;5107351;28;20055;-63
2022/03/01 06:51:36;;;;;;;20.92;10.98;;;;;;;;;;5106030;28;20040;-63
2022/03/01 06:54:02;;;;;;;17.50;9.98;;;;;;;;;;5107021;28;20044;-64
2022/03/01 06:56:28;;;;;;;21.80;10.90;;;;;;;;;;5106877;28;20397;-64
2022/03/01 06:58:54;;;;;;;16.25;10.07;;;;;;;;;;5107369;28;20508;-63
2022/03/01 07:01:21;;;;;;;16.92;9.73;;;;;;;;;;5105572;28;20051;-64
2022/03/01 07:03:47;;;;;;;18.60;11.02;;;;;;;;;;5102892;28;20071;-64
2022/03/01 07:06:13;;;;;;;17.00;10.88;;;;;;;;;;5104915;28;20035;-64
2022/03/01 07:08:39;;;;;;;15.23;9.68;;;;;;;;;;5106600;28;20044;-64
2022/03/01 07:11:05;;;;;;;17.80;10.65;;;;;;;;;;5107352;28;20501;-63
2022/03/01 07:13:31;;;;;;;16.92;10.13;;;;;;;;;;5107116;28;20032;-63
2022/03/01 07:15:57;;;;;;;16.75;9.80;;;;;;;;;;5107008;28;20133;-64
2022/03/01 07:18:23;;;;;;;17.65;10.50;;;;;;;;;;5106963;28;20032;-63
2022/03/01 07:20:49;;;;;;;17.63;10.00;;;;;;;;;;5107880;28;20031;-64
2022/03/01 07:23:15;;;;;;;19.30;10.75;;;;;;;;;;5107321;28;20477;-63
2022/03/01 07:25:42;;;;;;;17.48;10.27;;;;;;;;;;5107012;28;20050;-63
2022/03/01 07:28:08;;;;;;;20.33;10.88;;;;;;;;;;5106628;28;20394;-64
2022/03/01 07:30:34;;;;;;;17.45;10.27;;;;;;;;;;5106811;28;20370;-64
2022/03/01 07:33:01;;;;;;;15.88;10.55;;;;;;;;;;5105309;28;20048;-63
2022/03/01 07:35:27;;;;;;;16.73;10.75;;;;;;;;;;5106282;28;20462;-64
2022/03/01 07:37:54;;;;;;;18.58;10.75;;;;;;;;;;5107297;28;20093;-63
2022/03/01 07:40:22;;;;;;;18.85;10.52;;;;;;;;;;5106483;28;20081;-63
2022/03/01 07:42:48;;;;;;;16.45;10.50;;;;;;;;;;5107138;28;20059;-64
2022/03/01 07:45:14;;;;;;;17.63;9.93;;;;;;;;;;5106690;28;20039;-64
2022/03/01 07:47:41;;;;;;;17.58;10.30;;;;;;;;;;5096583;28;20061;-64
2022/03/01 07:50:07;;;;;;;20.33;11.30;;;;;;;;;;5092847;28;20077;-63
2022/03/01 07:52:33;;;;;;;20.58;10.90;;;;;;;;;;5093577;28;20035;-63
2022/03/01 07:54:59;;;;;;;16.98;10.57;;;;;;;;;;5093518;28;20043;-64
2022/03/01 07:57:25;;;;;;;22.67;11.43;;;;;;;;;;5092319;28;20040;-63
2022/03/01 07:59:51;;;;;;;20.20;10.40;;;;;;;;;;5089859;28;20036;-63
2022/03/01 08:02:17;;;;;;;18.33;10.30;;;;;;;;;;5092367;28;20043;-63
2022/03/01 08:04:43;;;;;;;18.92;11.27;;;;;;;;;;5092351;28;20096;-64
2022/03/01 08:07:10;;;;;;;19.05;11.27;;;;;;;;;;5092542;28;20047;-64
2022/03/01 08:09:36;;;;;;;17.55;11.05;;;;;;;;;;5091856;28;20048;-64
2022/03/01 08:12:04;;;;;;;19.33;10.98;;;;;;;;;;5092814;28;20410;-63
2022/03/01 08:14:31;;;;;;;18.77;11.35;;;;;;;;;;5091793;28;20050;-64
2022/03/01 08:16:57;;;;;;;19.30;11.30;;;;;;;;;;5092678;28;20120;-63
2022/03/01 08:19:23;;;;;;;18.70;11.13;;;;;;;;;;5092844;28;20040;-63
2022/03/01 08:21:49;;;;;;;19.45;11.02;;;;;;;;;;5090873;28;20036;-64
2022/03/01 08:24:15;;;;;;;19.23;11.18;;;;;;;;;;5092557;28;20028;-63
2022/03/01 08:26:41;;;;;;;18.42;11.27;;;;;;;;;;5091759;28;20043;-63
2022/03/01 08:29:08;;;;;;;20.33;10.23;;;;;;;;;;5091997;28;20402;-64
2022/03/01 08:31:36;;;;;;;17.25;11.13;;;;;;;;;;5090543;28;20078;-64
2022/03/01 08:34:02;;;;;;;22.08;11.05;;;;;;;;;;5090894;28;20434;-64
2022/03/01 08:36:28;;;;;;;15.85;10.20;;;;;;;;;;5092264;28;20239;-63
2022/03/01 08:38:54;;;;;;;18.35;10.38;;;;;;;;;;5092175;28;20036;-63
2022/03/01 08:41:20;;;;;;;20.80;11.52;;;;;;;;;;5091957;28;20102;-63
2022/03/01 08:43:46;;;;;;;17.52;10.63;;;;;;;;;;5092357;28;20036;-63
2022/03/01 08:46:13;;;;;;;14.73;10.57;;;;;;;;;;5092042;28;20066;-64
2022/03/01 08:48:39;;;;;;;19.88;10.75;;;;;;;;;;5091479;28;20092;-64
2022/03/01 08:51:05;;;;;;;17.80;11.55;;;;;;;;;;5091760;28;20418;-64
2022/03/01 08:53:32;;;;;;;17.27;11.38;;;;;;;;;;5091756;28;20114;-63
2022/03/01 08:55:58;;;;;;;20.90;11.23;;;;;;;;;;5091713;28;20102;-64
2022/03/01 08:58:24;;;;;;;18.83;11.55;;;;;;;;;;5090488;28;20040;-64
2022/03/01 09:00:51;;;;;;;18.35;11.43;;;;;;;;;;5091261;28;20071;-63
2022/03/01 09:03:17;;;;;;;18.98;11.63;;;;;;;;;;5091474;28;20390;-63
2022/03/01 09:05:43;;;;;;;21.17;11.98;;;;;;;;;;5091180;28;20039;-63
2022/03/01 09:08:12;;;;;;;20.27;11.63;;;;;;;;;;5091436;28;20482;-64
2022/03/01 09:10:39;;;;;;;21.85;11.30;;;;;;;;;;5091074;28;20123;-64
2022/03/01 09:13:05;;;;;;;21.15;11.68;;;;;;;;;;5091300;28;20040;-64
2022/03/01 09:15:32;;;;;;;18.92;11.63;;;;;;;;;;5090802;28;20119;-64
2022/03/01 09:17:59;;;;;;;19.48;10.85;;;;;;;;;;5091254;28;20032;-63
2022/03/01 09:20:26;;;;;;;18.20;10.75;;;;;;;;;;5091032;28;20075;-64
2022/03/01 09:22:53;;;;;;;18.63;11.85;;;;;;;;;;5090758;28;20103;-63
2022/03/01 09:25:19;;;;;;;17.15;11.38;;;;;;;;;;5089748;28;20097;-64
2022/03/01 09:27:45;;;;;;;19.48;11.20;;;;;;;;;;5090652;28;20475;-64
2022/03/01 09:30:11;;;;;;;17.25;11.52;;;;;;;;;;5090991;28;20043;-64
2022/03/01 09:32:37;;;;;;;18.15;11.93;;;;;;;;;;5090526;28;20876;-64
2022/03/01 09:35:04;;;;;;;21.20;12.48;;;;;;;;;;5090352;28;20125;-65
2022/03/01 09:37:32;;;;;;;21.90;11.85;;;;;;;;;;5089476;28;20058;-64
2022/03/01 09:39:59;;;;;;;17.83;11.52;;;;;;;;;;5091205;28;20032;-64
2022/03/01 09:42:25;;;;;;;20.50;11.60;;;;;;;;;;5090526;28;20044;-63
2022/03/01 09:44:52;;;;;;;17.17;12.25;;;;;;;;;;5090169;28;20122;-63
2022/03/01 09:47:18;;;;;;;18.77;11.93;;;;;;;;;;5089377;28;20036;-63
2022/03/01 09:49:44;;;;;;;19.45;11.48;;;;;;;;;;5087703;28;20055;-64
2022/03/01 09:52:10;;;;;;;17.65;11.75;;;;;;;;;;5090208;28;20064;-64
2022/03/01 09:54:36;;;;;;;19.40;12.32;;;;;;;;;;5088854;28;20089;-63
2022/03/01 09:57:02;;;;;;;20.23;10.90;;;;;;;;;;5090247;28;20409;-63
2022/03/01 09:59:29;;;;;;;19.75;12.20;;;;;;;;;;5090997;28;20118;-64
2022/03/01 10:01:55;;;;;;;23.33;12.10;;;;;;;;;;5090081;28;20054;-64
2022/03/01 10:04:21;;;;;;;17.20;11.73;;;;;;;;;;5090298;28;20040;-63
2022/03/01 10:06:48;;;;;;;20.50;11.50;;;;;;;;;;5089816;28;20055;-65
2022/03/01 10:09:15;;;;;;;16.45;10.98;;;;;;;;;;5090165;28;20513;-64
2022/03/01 10:11:41;;;;;;;16.55;11.15;;;;;;;;;;5089861;28;20043;-63
2022/03/01 10:14:07;;;;;;;19.60;11.98;;;;;;;;;;5090116;28;20039;-63
2022/03/01 10:16:38;;;;;;;16.17;11.48;;;;;;;;;;5089971;28;20036;-64
2022/03/01 10:19:04;;;;;;;17.80;11.82;;;;;;;;;;5089652;28;20542;-63
2022/03/01 10:21:30;;;;;;;19.77;12.15;;;;;;;;;;5090278;28;20174;-63
2022/03/01 10:23:57;;;;;;;16.98;12.25;;;;;;;;;;5089799;28;20046;-63
2022/03/01 10:26:25;;;;;;;20.60;13.00;;;;;;;;;;5090167;28;20055;-64
2022/03/01 10:28:52;;;;;;;18.58;12.38;;;;;;;;;;5090502;28;20047;-65
2022/03/01 10:31:24;;;;;;;18.15;11.75;;;;;;;;;;5090859;28;20478;-63
2022/03/01 10:33:57;;;;;;;15.90;11.73;;;;;;;;;;5091056;28;20051;-64
2022/03/01 10:36:29;;;;;;;18.08;12.05;;;10.90;99.90;;;;;;5089469;28;20051;-64
2022/03/01 10:38:56;;;;;;;17.35;11.70;;;11.40;99.90;;;;;;5090516;28;20043;-63
2022/03/01 10:41:25;;;;;;;16.80;11.80;;;11.60;99.90;;;;;;5090886;28;20043;-63
2022/03/01 10:43:57;;;;;;;16.35;11.75;;;11.50;99.90;;;;;;5089530;28;20036;-64
2022/03/01 10:46:23;;;;;;;16.50;11.18;;;;;;;;;;5090764;28;20032;-63
2022/03/01 10:49:11;;;;;;;17.35;12.18;;;11.50;99.90;;;;;;5090655;28;20410;-64
2022/03/01 10:51:49;;;;;;;18.95;11.75;;;;;;;;;;5090998;28;20073;-64
2022/03/01 10:54:29;;;;;;;17.17;11.65;;;;;;;;;;5090434;28;20040;-64
2022/03/01 10:56:56;;;;;;;15.48;11.57;;;10.90;99.90;;;;;;5090396;28;20449;-64
2022/03/01 10:59:23;;;;;;;15.68;11.07;;;;;;;;;;5090529;28;20032;-64
2022/03/01 11:01:49;;;;;;;15.43;12.00;;;;;;;;;;5090353;28;20069;-65
2022/03/01 11:04:15;;;;;;;15.00;11.35;;;;;;;;;;5090489;28;20032;-64
2022/03/01 11:06:41;;;;;;;17.08;11.82;;;;;;;;;;5090613;28;20044;-63
2022/03/01 11:09:08;;;;;;;25.17;12.25;;;10.50;99.90;;;;;;5090244;28;20118;-64
2022/03/01 11:11:36;;;;;;;15.60;11.15;;;10.40;99.90;;;;;;5090584;28;20178;-64
2022/03/01 11:14:03;;;;;;;17.35;12.07;;;;;;;;;;5090476;28;20083;-64
2022/03/01 11:17:00;;;;;;;17.42;11.13;;;10.80;99.90;;;;;;5090211;28;20087;-63
2022/03/01 11:19:26;;;;;;;16.70;11.38;;;;;;;;;;5090270;28;20168;-64
2022/03/01 11:21:52;;;;;;;17.33;11.73;;;;;;;;;;5089685;28;20094;-64
2022/03/01 11:24:19;;;;;;;15.52;11.23;;;;;;;;;;5093975;28;20043;-65
2022/03/01 11:26:46;;;;;;;16.65;11.38;;;;;;;;;;5094179;28;20402;-64
2022/03/01 11:29:16;;;;;;;16.88;11.15;;;;;;;;;;5093890;28;20047;-64
2022/03/01 11:31:44;;;;;;;16.20;11.50;;;;;;;;;;5094196;28;20410;-64
2022/03/01 11:34:17;;;;;;;18.80;11.23;;;;;;;;;;5093661;28;20036;-64
2022/03/01 11:36:56;;;;;;;15.73;10.50;;;10.60;99.90;;;;;;5093747;28;20052;-64
2022/03/01 11:39:30;;;;;;;16.83;10.95;;;;;;;;;;5093767;28;20035;-64
2022/03/01 11:42:02;;;;;;;17.65;10.88;;;;;;;;;;5089153;28;20036;-64
2022/03/01 11:44:33;;;;;;;17.73;10.82;;;10.80;99.90;;;;;;5093578;28;20024;-65
2022/03/01 11:46:59;;;;;;;14.80;10.32;;;;;;;;;;5093501;28;20039;-64
2022/03/01 11:49:32;;;;;;;16.55;11.38;;;;;;;;;;5093436;28;20393;-64
2022/03/01 11:51:58;;;;;;;16.35;11.18;;;;;;;;;;5093562;28;20043;-64
2022/03/01 11:54:31;;;;;;;17.10;11.73;;;10.60;99.90;;;;;;5093382;28;20516;-65
2022/03/01 11:56:58;;;;;;;16.55;11.60;;;;;;;;;;5093300;28;20090;-63
2022/03/01 11:59:24;;;;;;;17.90;11.20;;;;;;;;;;5093207;28;20036;-63
2022/03/01 12:01:51;;;;;;;19.35;11.57;;;;;;;;;;5093308;28;20047;-65
2022/03/01 12:04:21;;;;;;;16.15;10.55;;;;;;;;;;5093023;28;20079;-64
2022/03/01 12:06:50;;;;;;;16.65;11.55;;;;;;;;;;5093493;28;20177;-64
2022/03/01 12:09:16;;;;;;;17.48;12.20;;;;;;;;;;5093000;28;20048;-65
2022/03/01 12:11:44;;;;;;;18.25;12.48;;;;;;;;;;5092857;28;20040;-64
2022/03/01 12:14:10;;;;;;;16.98;12.30;;;;;;;;;;5093015;28;20074;-64
2022/03/01 12:16:37;;;;;;;19.05;12.38;;;;;;;;;;5092789;28;20115;-64
2022/03/01 12:19:10;;;;;;;18.92;11.80;;;;;;;;;;5093065;28;20040;-63
2022/03/01 12:21:37;;;;;;;19.58;13.13;;;;;;;;;;5092941;28;20046;-63
2022/03/01 12:24:04;;;;;;;18.55;11.75;;;;;;;;;;5093352;28;20386;-64
2022/03/01 12:26:30;;;;;;;19.15;11.88;;;;;;;;;;5092877;28;20090;-64
2022/03/01 12:28:58;;;;;;;19.40;12.73;;;;;;;;;;5092905;28;20035;-64
2022/03/01 12:31:29;;;;;;;16.88;12.10;;;8.80;99.90;;;;;;5092509;28;20093;-64
2022/03/01 12:33:56;;;;;;;17.17;12.07;;;;;;;;;;5092724;28;20048;-64
2022/03/01 12:36:27;;;;;;;17.33;11.98;;;;;;;;;;5092572;28;20052;-63
2022/03/01 12:38:54;;;;;;;17.23;12.40;;;;;;;;;;5092873;28;20052;-63
2022/03/01 12:41:22;;;;;;;17.10;12.07;;;;;;;;;;5092702;28;20043;-64
2022/03/01 12:44:14;;;;;;;17.17;12.15;;;;;;;;;;5092461;28;20044;-63
2022/03/01 12:46:40;;;;;;;19.50;12.60;;;;;;;;;;5088909;28;20087;-65
2022/03/01 12:49:08;;;;;;;17.77;12.00;;;;;;;;;;5092530;28;20044;-64
2022/03/01 12:51:35;;;;;;;19.35;12.32;;;;;;;;;;5092243;28;20051;-64
2022/03/01 12:54:03;;;;;;;18.40;12.38;;;;;;;;;;5092459;28;20106;-64
2022/03/01 12:56:31;;;;;;;16.52;11.98;;;;;;;;;;5092309;28;20040;-64
2022/03/01 12:59:05;;;;;;;19.25;12.38;;;;;;;;;;5092646;28;20036;-64
2022/03/01 13:01:32;;;;;;;17.75;12.38;;;;;;;;;;5088983;28;20486;-64
2022/03/01 13:03:58;;;;;;;17.88;12.48;;;;;;;;;;5091865;28;20456;-64
2022/03/01 13:06:24;;;;;;;18.75;12.52;;;;;;;;;;5092000;28;20039;-64
2022/03/01 13:08:54;;;;;;;16.80;12.38;;;;;;;;;;5091765;28;20044;-63
2022/03/01 13:11:21;;;;;;;17.10;12.35;;;;;;;;;;5092495;28;20048;-64
2022/03/01 13:13:49;;;;;;;21.05;12.98;;;;;;;;;;5092035;28;20039;-64
2022/03/01 13:16:20;;;;;;;18.27;12.88;;;;;;;;;;5091654;28;20072;-63
2022/03/01 13:18:46;;;;;;;17.60;12.35;;;;;;;;;;5091800;28;20085;-63
2022/03/01 13:21:12;;;;;;;16.95;12.23;;;;;;;;;;5090346;28;20039;-64
2022/03/01 13:23:38;;;;;;;19.33;13.00;;;;;;;;;;5091553;28;20429;-64
2022/03/01 13:26:04;;;;;;;17.05;12.20;;;;;;;;;;5090287;28;20051;-65
2022/03/01 13:28:32;;;;;;;18.42;13.02;;;;;;;;;;5091781;28;20089;-64
2022/03/01 13:30:58;;;;;;;17.27;12.45;;;;;;;;;;5091648;28;20040;-63
2022/03/01 13:33:27;;;;;;;18.05;12.85;;;;;;;;;;5091730;28;20044;-64
2022/03/01 13:35:53;;;;;;;17.65;12.57;;;;;;;;;;5091316;28;20135;-64
2022/03/01 13:38:20;;;;;;;16.35;11.98;;;;;;;;;;5091704;28;20040;-64
2022/03/01 13:40:46;;;;;;;16.90;11.88;;;;;;;;;;5091418;28;20035;-64
2022/03/01 13:43:17;;;;;;;18.13;12.30;;;;;;;;;;5091668;28;20074;-63
2022/03/01 13:45:43;;;;;;;17.92;12.27;;;;;;;;;;5090744;28;20497;-64
2022/03/01 13:48:14;;;;;;;17.35;11.98;;;;;;;;;;5091455;28;20398;-64
2022/03/01 13:50:41;;;;;;;18.63;13.18;;;;;;;;;;5090070;28;20048;-63
2022/03/01 13:53:12;;;;;;;19.10;12.93;;;;;;;;;;5091330;28;20082;-64
2022/03/01 13:55:38;;;;;;;16.05;11.55;;;;;;;;;;5090935;28;20059;-64
2022/03/01 13:58:04;;;;;;;17.38;12.18;;;;;;;;;;5091303;28;20578;-64
2022/03/01 14:00:37;;;;;;;17.67;12.15;;;9.80;99.90;;;;;;5091328;28;20032;-64
2022/03/01 14:03:10;;;;;;;16.75;12.10;;;;;;;;;;5091194;28;20085;-64
2022/03/01 14:05:39;;;;;;;16.50;11.88;;;;;;;;;;5091012;28;20048;-64
2022/03/01 14:08:08;;;;;;;17.60;12.23;;;9.70;99.90;;;;;;5091179;28;20526;-63
2022/03/01 14:10:36;;;;;;;17.98;13.05;;;;;;;;;;5091169;28;20040;-64
2022/03/01 14:13:22;;;;;;;17.88;11.45;;;;;;;;;;5090933;28;20040;-64
2022/03/01 14:15:50;;;;;;;19.17;12.00;;;;;;;;;;5090489;28;20050;-64
2022/03/01 14:18:17;;;;;;;19.80;12.93;;;;;;;;;;5091102;28;20039;-63
2022/03/01 14:20:47;;;;;;;17.27;11.25;;;;;;;;;;5090823;28;20036;-64
2022/03/01 14:23:13;;;;;;;20.33;12.25;;;;;;;;;;5089677;28;20398;-64
2022/03/01 14:25:39;;;;;;;15.57;11.80;;;;;;;;;;5090711;28;20390;-64
2022/03/01 14:28:05;;;;;;;17.88;12.10;;;;;;;;;;5090589;28;20526;-64
2022/03/01 14:30:31;;;;;;;17.52;12.88;;;;;;;;;;5090858;28;20040;-63
2022/03/01 14:33:00;;;;;;;19.33;12.52;;;;;;;;;;5090841;28;20115;-64
2022/03/01 14:35:26;;;;;;;16.17;11.85;;;;;;;;;;5090864;28;20059;-64
2022/03/01 14:37:52;;;;;;;18.30;12.02;;;;;;;;;;5090481;28;20069;-65
2022/03/01 14:40:18;;;;;;;17.23;12.48;;;;;;;;;;5089427;28;20123;-64
2022/03/01 14:42:44;;;;;;;17.52;12.07;;;;;;;;;;5090632;28;20025;-63
2022/03/01 14:45:10;;;;;;;17.50;11.57;;;;;;;;;;5090536;28;20427;-64
2022/03/01 14:47:36;;;;;;;17.77;11.45;;;;;;;;;;5090925;28;20119;-63
2022/03/01 14:50:04;;;;;;;17.27;12.50;;;;;;;;;;5090671;28;20048;-63
2022/03/01 14:52:30;;;;;;;18.27;12.20;;;;;;;;;;5088198;28;20043;-64
2022/03/01 14:54:56;;;;;;;19.75;13.05;;;;;;;;;;5090016;28;20467;-64
2022/03/01 14:57:22;;;;;;;19.08;13.00;;;;;;;;;;5091626;28;20118;-63
2022/03/01 14:59:48;;;;;;;24.48;12.70;;;;;;;;;;5094350;28;20123;-64
2022/03/01 15:02:14;;;;;;;15.30;11.77;;;;;;;;;;5094453;28;20139;-64
2022/03/01 15:04:41;;;;;;;18.13;11.88;;;;;;;;;;5094661;28;20089;-63
2022/03/01 15:07:07;;;;;;;18.48;11.93;;;;;;;;;;5094058;28;20048;-63
2022/03/01 15:09:34;;;;;;;17.58;12.55;;;;;;;;;;5094664;28;20039;-63
2022/03/01 15:12:00;;;;;;;17.83;11.75;;;;;;;;;;5093898;28;20123;-64
2022/03/01 15:14:26;;;;;;;16.92;12.32;;;;;;;;;;5094269;28;20454;-63
2022/03/01 15:16:52;;;;;;;16.70;12.40;;;;;;;;;;5094195;28;20104;-64
2022/03/01 15:19:18;;;;;;;18.70;12.77;;;;;;;;;;5094138;28;20119;-64
2022/03/01 15:21:44;;;;;;;18.17;12.45;;;;;;;;;;5093930;28;20081;-64
2022/03/01 15:24:11;;;;;;;16.08;12.02;;;;;;;;;;5093748;28;20039;-64
2022/03/01 15:26:37;;;;;;;17.42;12.18;;;;;;;;;;5094000;28;20044;-63
2022/03/01 15:29:04;;;;;;;20.73;11.93;;;;;;;;;;5094188;28;20414;-64
2022/03/01 15:31:30;;;;;;;17.48;11.82;;;;;;;;;;5093981;28;20338;-63
2022/03/01 15:33:56;;;;;;;17.80;12.70;;;;;;;;;;5094038;28;20040;-64
2022/03/01 15:36:22;;;;;;;17.90;12.82;;;;;;;;;;5093541;28;20052;-64
2022/03/01 15:38:48;;;;;;;16.30;12.20;;;;;;;;;;5093848;28;20105;-63
2022/03/01 15:41:14;;;;;;;21.65;13.23;;;;;;;;;;5093577;28;20044;-63
2022/03/01 15:43:40;;;;;;;19.92;13.38;;;;;;;;;;5094038;28;20037;-63
2022/03/01 15:46:06;;;;;;;19.60;14.15;;;;;;;;;;5093822;28;20037;-63
2022/03/01 15:48:32;;;;;;;19.45;12.85;;;;;;;;;;5094016;28;20072;-63
2022/03/01 15:50:58;;;;;;;18.80;12.77;;;;;;;;;;5093697;28;20094;-64
2022/03/01 15:53:25;;;;;;;20.00;12.77;;;;;;;;;;5093256;28;20044;-63
2022/03/01 15:55:51;;;;;;;18.65;12.95;;;;;;;;;;5093384;28;20043;-64
2022/03/01 15:58:17;;;;;;;28.70;17.77;;;;;;;;;;5093409;28;20044;-63
2022/03/01 16:00:43;;;;;;;31.55;19.30;;;;;;;;;;5093562;28;20394;-63
2022/03/01 16:03:10;;;;;;;27.02;15.27;;;;;;;;;;5093588;28;20115;-63
2022/03/01 16:05:36;;;;;;;18.42;12.52;;;;;;;;;;5093505;28;20039;-63
2022/03/01 16:08:02;;;;;;;19.85;12.38;;;;;;;;;;5092889;28;20468;-64
2022/03/01 16:10:28;;;;;;;18.05;13.10;;;;;;;;;;5093289;28;20044;-63
2022/03/01 16:12:55;;;;;;;18.50;12.50;;;;;;;;;;5093206;28;20059;-63
2022/03/01 16:15:21;;;;;;;19.38;12.85;;;;;;;;;;5092970;28;20047;-64
2022/03/01 16:17:47;;;;;;;19.98;12.77;;;;;;;;;;5093126;28;20039;-63
2022/03/01 16:20:14;;;;;;;19.77;13.30;;;;;;;;;;5093166;28;20043;-64
2022/03/01 16:22:40;;;;;;;18.30;11.82;;;;;;;;;;5091477;28;20127;-63
2022/03/01 16:25:06;;;;;;;17.52;12.27;;;;;;;;;;5093309;28;20457;-64
2022/03/01 16:27:32;;;;;;;17.98;12.57;;;;;;;;;;5091445;28;20032;-64
2022/03/01 16:29:58;;;;;;;18.08;12.80;;;;;;;;;;5093007;28;20547;-63
2022/03/01 16:32:24;;;;;;;17.70;12.82;;;;;;;;;;5091467;28;20083;-64
2022/03/01 16:34:51;;;;;;;18.65;13.50;;;;;;;;;;5092695;28;20465;-63
2022/03/01 16:37:17;;;;;;;21.38;12.50;;;;;;;;;;5093094;28;20048;-64
2022/03/01 16:39:43;;;;;;;19.67;12.93;;;;;;;;;;5092388;28;20039;-64
2022/03/01 16:42:10;;;;;;;21.38;13.55;;;;;;;;;;5093078;28;20086;-64
2022/03/01 16:44:36;;;;;;;21.83;13.35;;;;;;;;;;5089198;28;20040;-64
2022/03/01 16:47:03;;;;;;;20.35;12.85;;;;;;;;;;5092557;28;20506;-63
2022/03/01 16:49:35;;;;;;;19.33;13.13;;;;;;;;;;5090880;28;20054;-63
2022/03/01 16:52:01;;;;;;;19.15;13.43;;;;;;;;;;5092161;28;20093;-63
2022/03/01 16:54:29;;;;;;;18.92;12.93;;;;;;;;;;5092395;28;20032;-63
2022/03/01 16:56:56;;;;;;;18.75;13.10;;;;;;;;;;5090740;28;20047;-63
2022/03/01 16:59:22;;;;;;;17.85;12.60;;;;;;;;;;5092267;28;20033;-63
2022/03/01 17:01:48;;;;;;;19.42;13.50;;;;;;;;;;5091761;28;20077;-64
2022/03/01 17:04:14;;;;;;;18.75;12.57;;;;;;;;;;5090841;28;20047;-63
2022/03/01 17:06:40;;;;;;;19.55;13.32;;;;;;;;;;5090615;28;20414;-64
2022/03/01 17:09:10;;;;;;;19.60;12.63;;;;;;;;;;5092264;28;20119;-63
2022/03/01 17:11:39;;;;;;;21.10;13.20;;;;;;;;;;5091925;28;20067;-63
2022/03/01 17:14:05;;;;;;;18.73;13.48;;;;;;;;;;5090855;28;20363;-63
2022/03/01 17:16:31;;;;;;;21.10;14.18;;;;;;;;;;5091548;28;20043;-63
2022/03/01 17:18:57;;;;;;;20.77;13.40;;;;;;;;;;5091447;28;20059;-63
2022/03/01 17:21:23;;;;;;;21.48;14.05;;;;;;;;;;5091626;28;20054;-63
2022/03/01 17:23:49;;;;;;;20.35;13.85;;;;;;;;;;5091675;28;20044;-63
2022/03/01 17:26:15;;;;;;;21.67;14.63;;;;;;;;;;5091940;28;20072;-64
2022/03/01 17:28:42;;;;;;;19.13;13.52;;;;;;;;;;5091691;28;20040;-63
2022/03/01 17:31:08;;;;;;;22.08;13.68;;;;;;;;;;5091858;28;20036;-63
2022/03/01 17:33:34;;;;;;;22.70;13.70;;;;;;;;;;5091499;28;20508;-63
2022/03/01 17:36:00;;;;;;;21.05;15.10;;;;;;;;;;5091240;28;20142;-64
2022/03/01 17:38:26;;;;;;;20.90;14.25;;;;;;;;;;5091869;28;20476;-63
2022/03/01 17:40:52;;;;;;;20.85;14.18;;;;;;;;;;5091329;28;20073;-64
2022/03/01 17:43:18;;;;;;;23.48;14.82;;;;;;;;;;5091510;28;20068;-63
2022/03/01 17:45:44;;;;;;;21.27;15.15;;;;;;;;;;5091223;28;20491;-62
2022/03/01 17:48:10;;;;;;;23.02;14.93;;;;;;;;;;5091429;28;20073;-64
2022/03/01 17:50:37;;;;;;;20.83;15.30;;;;;;;;;;5091179;28;20044;-63
2022/03/01 17:53:03;;;;;;;22.25;14.90;;;;;;;;;;5091340;28;20057;-63
2022/03/01 17:55:30;;;;;;;23.33;15.27;;;;;;;;;;5091428;28;20048;-63
2022/03/01 17:57:56;;;;;;;22.65;15.77;;;;;;;;;;5091158;28;20052;-64
2022/03/01 18:00:22;;;;;;;20.20;14.48;;;;;;;;;;5091341;28;20043;-64
2022/03/01 18:02:48;;;;;;;22.45;14.90;;;;;;;;;;5090986;28;20036;-63
2022/03/01 18:05:16;;;;;;;23.00;14.95;;;;;;;;;;5091290;28;20119;-63
2022/03/01 18:07:42;;;;;;;21.55;14.43;;;;;;;;;;5090238;28;20032;-63
2022/03/01 18:10:08;;;;;;;23.75;14.93;;;;;;;;;;5091138;28;20454;-62
2022/03/01 18:12:35;;;;;;;20.83;14.02;;;;;;;;;;5092579;28;20062;-64
2022/03/01 18:15:01;;;;;;;23.55;15.30;;;;;;;;;;5072824;28;20043;-65
2022/03/01 18:17:27;;;;;;;22.92;14.60;;;;;;;;;;5091330;28;20036;-64
2022/03/01 18:19:53;;;;;;;23.48;15.05;;;;;;;;;;5090571;28;20036;-64
2022/03/01 18:22:19;;;;;;;24.23;16.13;;;;;;;;;;5089945;28;20085;-65
2022/03/01 18:24:45;;;;;;;20.77;14.40;;;;;;;;;;5090890;28;20032;-64
2022/03/01 18:27:11;;;;;;;23.42;15.07;;;;;;;;;;5090891;28;20386;-64
2022/03/01 18:29:38;;;;;;;23.73;15.50;;;;;;;;;;5090822;28;20165;-64
2022/03/01 18:32:04;;;;;;;23.42;16.27;;;;;;;;;;5088971;28;20048;-64
2022/03/01 18:34:30;;;;;;;24.48;16.30;;;;;;;;;;5088236;28;20024;-65
2022/03/01 18:36:56;;;;;;;24.10;16.05;;;;;;;;;;5087971;28;20401;-64
2022/03/01 18:39:22;;;;;;;23.77;16.92;;;;;;;;;;5086798;28;20200;-65
2022/03/01 18:41:48;;;;;;;27.85;17.25;;;;;;;;;;5085116;28;20070;-64
2022/03/01 18:44:15;;;;;;;27.55;17.92;;;;;;;;;;5081489;28;20044;-63
2022/03/01 18:46:41;;;;;;;28.92;19.10;;;;;;;;;;5088245;28;20086;-64
2022/03/01 18:49:07;;;;;;;28.58;18.25;;;;;;;;;;5087430;28;20086;-64
2022/03/01 18:51:34;;;;;;;31.77;21.30;;;;;;;;;;5087931;28;20114;-62
2022/03/01 18:54:01;;;;;;;30.08;20.60;;;;;;;;;;5088898;28;20047;-62
2022/03/01 18:56:28;;;;;;;30.90;20.13;;;;;;;;;;5088375;28;20097;-63
2022/03/01 18:58:54;;;;;;;29.20;19.73;;;;;;;;;;5087477;28;20067;-63
2022/03/01 19:01:21;;;;;;;27.17;18.10;;;;;;;;;;5089638;28;20081;-62
2022/03/01 19:03:47;;;;;;;28.50;18.52;;;;;;;;;;5086062;28;20074;-63
2022/03/01 19:06:16;;;;;;;30.25;19.13;;;;;;;;;;5089391;28;20074;-62
2022/03/01 19:08:44;;;;;;;26.60;18.67;;;;;;;;;;5085046;28;20051;-62
2022/03/01 19:11:10;;;;;;;28.52;19.17;;;;;;;;;;5088949;28;20185;-63
2022/03/01 19:13:36;;;;;;;28.67;19.35;;;;;;;;;;5089344;28;20085;-63
2022/03/01 19:16:02;;;;;;;27.33;18.05;;;;;;;;;;5088978;28;20115;-62
2022/03/01 19:18:28;;;;;;;26.60;18.35;;;;;;;;;;5089705;28;20563;-63
2022/03/01 19:20:54;;;;;;;25.58;17.33;;;;;;;;;;5087698;28;20032;-63
2022/03/01 19:23:20;;;;;;;26.15;16.40;;;;;;;;;;5088259;28;20455;-63
2022/03/01 19:25:46;;;;;;;25.85;17.85;;;;;;;;;;5088675;28;20086;-63
2022/03/01 19:28:12;;;;;;;25.08;17.25;;;;;;;;;;5089302;28;20402;-63
2022/03/01 19:30:39;;;;;;;22.00;16.13;;;;;;;;;;5088733;28;20695;-63
2022/03/01 19:33:05;;;;;;;25.70;17.70;;;;;;;;;;5089356;28;20032;-63
2022/03/01 19:35:31;;;;;;;23.15;16.17;;;;;;;;;;5089002;28;20040;-62
2022/03/01 19:37:58;;;;;;;25.55;17.25;;;;;;;;;;5085552;28;20448;-63
2022/03/01 19:40:24;;;;;;;26.35;17.10;;;;;;;;;;5087459;28;20173;-63
2022/03/01 19:42:50;;;;;;;23.10;16.45;;;;;;;;;;5089551;28;20081;-63
2022/03/01 19:45:16;;;;;;;26.10;16.90;;;;;;;;;;5092925;28;20190;-62
2022/03/01 19:47:44;;;;;;;24.70;17.13;;;;;;;;;;5093000;28;20075;-63
2022/03/01 19:50:14;;;;;;;27.77;18.27;;;;;;;;;;5092994;28;20040;-63
2022/03/01 19:52:41;;;;;;;25.08;16.98;;;;;;;;;;5088538;28;20044;-63
2022/03/01 19:55:08;;;;;;;26.40;18.40;;;;;;;;;;5089699;28;20095;-60
2022/03/01 19:57:34;;;;;;;23.30;16.40;;;;;;;;;;5092333;28;20055;-63
2022/03/01 20:00:01;;;;;;;25.35;17.08;;;;;;;;;;5092874;28;20065;-63
2022/03/01 20:02:27;;;;;;;24.98;17.45;;;;;;;;;;5091615;28;20040;-63
2022/03/01 20:04:53;;;;;;;42.67;25.05;;;;;;;;;;5092155;28;20089;-63
2022/03/01 20:07:19;;;;;;;68.18;35.72;;;;;;;;;;5090938;28;20036;-62
2022/03/01 20:09:45;;;;;;;36.00;20.55;;;;;;;;;;5092490;28;20036;-63
2022/03/01 20:12:11;;;;;;;30.33;18.88;;;;;;;;;;5091092;28;20523;-63
2022/03/01 20:14:40;;;;;;;30.38;18.40;;;;;;;;;;5092310;28;20032;-63
2022/03/01 20:17:07;;;;;;;28.67;18.52;;;;;;;;;;5090747;28;20040;-63
2022/03/01 20:19:33;;;;;;;26.35;18.23;;;;;;;;;;5091472;28;20485;-63
2022/03/01 20:22:00;;;;;;;28.83;18.67;;;;;;;;;;5091687;28;20110;-63
2022/03/01 20:24:26;;;;;;;25.13;17.77;;;;;;;;;;5090429;28;20028;-63
2022/03/01 20:26:52;;;;;;;28.45;17.90;;;;;;;;;;5088681;28;20044;-63
2022/03/01 20:29:18;;;;;;;26.77;16.73;;;;;;;;;;5089655;28;20044;-63
2022/03/01 20:31:44;;;;;;;24.88;16.10;;;;;;;;;;5091265;28;20101;-63
2022/03/01 20:34:10;;;;;;;22.85;15.48;;;;;;;;;;5088663;28;20463;-63
2022/03/01 20:36:36;;;;;;;24.50;15.85;;;;;;;;;;5091467;28;20056;-63
2022/03/01 20:39:02;;;;;;;29.98;19.83;;;;;;;;;;5088657;28;20047;-62
2022/03/01 20:41:28;;;;;;;27.45;19.55;;;;;;;;;;5091609;28;20032;-62
2022/03/01 20:43:57;;;;;;;25.75;17.38;;;;;;;;;;5091078;28;20054;-63
2022/03/01 20:46:24;;;;;;;27.05;17.30;;;;;;;;;;5105376;28;20044;-62